Latest Weather Observations for PORTABLE NPWS NSW02

IDN60801

Issued at 10:33 pm EST Sunday 3 July 2022 (issued every 10 minutes, with the page automatically refreshed every 10 minutes)

About weather observations | Map of weather stations | Latest weather observations for NSW | Other Formats
Station Details ID: 250099 Name: PORTABLE NPWS NSW02 Lat: -33.10 Lon: 150.07 Height: 983.0 m

Portable automatic weather stations (PAWS) are operated by other organisations, such as Fire and Emergency Services, and are included here by agreement. Portable stations may be deployed to a location for a short period and their location may be subject to change without notice. Wind observations from these stations are provided from heights of either three (3) or ten (10) metres above ground level (AGL).

Data from the previous 72 hours. | See also: Recent months for locations in New South Wales
Date/Time
EST
Temp
°C
App
Temp
°C
Dew
Point
°C
Rel
Hum
%
Delta-T
°C
Wind Press
QNH
hPa
Press
MSL
hPa
Rain since
9am
mm
Dir  Spd
km/h
Gust
km/h
Spd
kts
Gust
kts
03/10:20pm 8.6 4.4 8.4 99 0.1 SE 20 28 11 15 - - 4.8
03/10:10pm 8.6 4.1 8.4 99 0.1 SE 22 26 12 14 - - 4.8
03/10:00pm 8.5 4.9 8.4 99 0.1 SE 17 24 9 13 - - 4.8
03/09:50pm 8.6 4.6 8.4 99 0.1 SE 19 26 10 14 - - 4.8
03/09:40pm 8.6 5.0 8.4 99 0.1 SE 17 24 9 13 - - 4.8
03/09:30pm 8.5 4.9 8.4 99 0.1 SE 17 22 9 12 - - 4.8
03/09:20pm 8.5 4.5 8.3 99 0.1 ESE 19 24 10 13 - - 4.8
03/09:10pm 8.4 4.4 8.3 99 0.1 SE 19 24 10 13 - - 4.8
03/09:00pm 8.4 4.4 8.2 99 0.1 SE 19 28 10 15 - - 4.8
03/08:50pm 8.3 4.7 8.2 99 0.1 SE 17 20 9 11 - - 4.8
03/08:40pm 8.3 4.7 8.2 99 0.1 SE 17 22 9 12 - - 4.8
03/08:30pm 8.3 3.7 8.1 99 0.1 ESE 22 24 12 13 - - 4.8
03/08:20pm 8.3 3.3 8.1 99 0.1 SE 24 33 13 18 - - 4.8
03/08:10pm 8.4 3.4 8.0 97 0.2 SE 24 39 13 21 - - 4.8
03/08:00pm 8.3 3.7 8.0 98 0.2 SE 22 30 12 16 - - 4.8
03/07:50pm 8.2 3.9 8.0 99 0.1 SE 20 26 11 14 - - 4.8
03/07:40pm 8.2 3.5 7.9 98 0.2 ESE 22 30 12 16 - - 4.8
03/07:30pm 8.2 3.9 7.9 98 0.2 ESE 20 26 11 14 - - 4.8
03/07:20pm 8.1 3.8 7.9 99 0.1 SE 20 22 11 12 - - 4.8
03/07:10pm 8.2 3.9 7.9 98 0.2 SE 20 28 11 15 - - 4.8
03/07:00pm 8.1 3.4 7.9 99 0.1 SE 22 30 12 16 - - 4.8
03/06:50pm 8.1 3.4 7.9 99 0.1 SE 22 26 12 14 - - 4.8
03/06:40pm 8.1 3.8 7.9 99 0.1 SE 20 26 11 14 - - 4.8
03/06:30pm 8.2 4.1 8.0 99 0.1 SE 19 22 10 12 - - 4.8
03/06:20pm 8.2 4.2 8.1 99 0.1 SE 19 26 10 14 - - 4.8
03/06:10pm 8.2 4.2 8.1 99 0.1 SE 19 24 10 13 - - 4.8
03/06:00pm 8.2 4.9 8.2 100 0.0 SE 15 19 8 10 - - 4.8
03/05:50pm 8.2 4.0 8.2 100 0.0 SE 20 26 11 14 - - 4.8
03/05:40pm 8.2 3.6 8.2 100 0.0 SE 22 26 12 14 - - 4.8
03/05:30pm 8.3 3.7 8.3 100 0.0 ESE 22 28 12 15 - - 4.8
03/05:20pm 8.4 4.4 8.4 100 0.0 SE 19 28 10 15 - - 4.8
03/05:10pm 8.5 5.3 8.5 100 0.0 SE 15 20 8 11 - - 4.8
03/05:00pm 8.5 4.9 8.5 100 0.0 SE 17 22 9 12 - - 4.8
03/04:50pm 8.6 4.7 8.6 100 0.0 SE 19 28 10 15 - - 4.8
03/04:40pm 8.7 4.8 8.7 100 0.0 SE 19 22 10 12 - - 4.8
03/04:30pm 8.7 4.8 8.7 100 0.0 ESE 19 32 10 17 - - 4.8
03/04:20pm 8.7 4.2 8.7 100 0.0 ESE 22 28 12 15 - - 4.8
03/04:10pm 8.7 4.6 8.7 100 0.0 SE 20 26 11 14 - - 4.8
03/04:00pm 8.7 4.6 8.7 100 0.0 SE 20 26 11 14 - - 4.8
03/03:50pm 8.6 4.7 8.6 100 0.0 SE 19 26 10 14 - - 4.8
03/03:40pm 8.6 5.1 8.6 100 0.0 ESE 17 22 9 12 - - 4.8
03/03:30pm 8.5 4.6 8.5 100 0.0 ESE 19 22 10 12 - - 4.8
03/03:20pm 8.5 4.4 8.5 100 0.0 ESE 20 24 11 13 - - 4.8
03/03:10pm 8.5 4.0 8.5 100 0.0 ESE 22 30 12 16 - - 4.8
03/03:00pm 8.4 3.5 8.4 100 0.0 ESE 24 32 13 17 - - 4.8
03/02:50pm 8.4 3.9 8.4 100 0.0 SE 22 30 12 16 - - 4.6
03/02:40pm 8.5 4.6 8.5 100 0.0 ESE 19 22 10 12 - - 4.6
03/02:30pm 8.5 4.6 8.5 100 0.0 ESE 19 26 10 14 - - 4.6
03/02:20pm 8.6 4.7 8.6 100 0.0 ESE 19 24 10 13 - - 4.4
03/02:10pm 8.7 4.8 8.7 100 0.0 ESE 19 20 10 11 - - 4.4
03/02:00pm 8.8 4.7 8.8 100 0.0 ESE 20 30 11 16 - - 4.2
03/01:50pm 8.9 5.1 8.9 100 0.0 ESE 19 22 10 12 - - 4.2
03/01:40pm 9.0 5.6 9.0 100 0.0 ESE 17 22 9 12 - - 4.0
03/01:30pm 9.1 5.7 9.1 100 0.0 ESE 17 24 9 13 - - 4.0
03/01:20pm 9.1 5.7 9.1 100 0.0 ESE 17 22 9 12 - - 4.0
03/01:10pm 9.1 5.3 9.1 100 0.0 ESE 19 20 10 11 - - 3.8
03/01:00pm 9.1 5.3 9.1 100 0.0 ESE 19 24 10 13 - - 3.8
03/12:50pm 9.1 5.1 9.1 100 0.0 ESE 20 24 11 13 - - 3.8
03/12:40pm 9.2 5.2 9.2 100 0.0 ESE 20 22 11 12 - - 3.8
03/12:30pm 9.2 5.4 9.2 100 0.0 ESE 19 24 10 13 - - 3.6
03/12:20pm 9.2 5.4 9.2 100 0.0 ESE 19 20 10 11 - - 3.6
03/12:10pm 9.3 5.6 9.3 100 0.0 ESE 19 26 10 14 - - 3.6
03/12:00pm 9.3 5.6 9.3 100 0.0 ESE 19 24 10 13 - - 3.4
03/11:50am 9.3 5.6 9.3 100 0.0 ESE 19 22 10 12 - - 3.2
03/11:40am 9.4 6.1 9.4 100 0.0 ESE 17 22 9 12 - - 3.0
03/11:30am 9.4 6.1 9.4 100 0.0 ESE 17 22 9 12 - - 2.8
03/11:20am 9.5 5.8 9.5 100 0.0 ESE 19 24 10 13 - - 2.8
03/11:10am 9.5 6.2 9.5 100 0.0 ESE 17 24 9 13 - - 2.6
03/11:00am 9.5 5.8 9.5 100 0.0 E 19 26 10 14 - - 2.6
03/10:50am 9.5 5.8 9.5 100 0.0 E 19 24 10 13 - - 2.4
03/10:40am 9.5 6.6 9.5 100 0.0 E 15 22 8 12 - - 2.4
03/10:30am 9.4 5.7 9.4 100 0.0 E 19 24 10 13 - - 2.2
03/10:20am 9.4 6.1 9.4 100 0.0 E 17 20 9 11 - - 2.2
03/10:10am 9.3 6.3 9.3 100 0.0 ESE 15 19 8 10 - - 2.0
03/10:00am 9.3 6.7 9.3 100 0.0 ESE 13 17 7 9 - - 1.6
03/09:50am 9.2 6.2 9.2 100 0.0 ESE 15 24 8 13 - - 1.4
03/09:40am 9.3 6.3 9.3 100 0.0 E 15 17 8 9 - - 1.0
03/09:30am 9.3 5.9 9.3 100 0.0 ESE 17 24 9 13 - - 0.8
03/09:20am 9.3 6.3 9.3 100 0.0 ESE 15 19 8 10 - - 0.6
03/09:10am 9.3 6.3 9.3 100 0.0 E 15 19 8 10 - - 0.4
03/09:00am 9.3 6.3 9.3 100 0.0 - 15 20 8 11 - - 4.0
03/08:50am 9.3 5.6 9.3 100 0.0 ESE 19 28 10 15 - - 3.8
03/08:40am 9.3 5.6 9.3 100 0.0 E 19 26 10 14 - - 3.6
03/08:30am 9.2 5.8 9.2 100 0.0 E 17 22 9 12 - - 3.4
03/08:20am 9.2 6.2 9.2 100 0.0 ESE 15 20 8 11 - - 3.2
03/08:10am 9.2 5.2 9.2 100 0.0 ESE 20 22 11 12 - - 3.2
03/08:00am 9.2 5.2 9.2 100 0.0 ESE 20 32 11 17 - - 3.0
03/07:50am 9.1 4.7 9.1 100 0.0 ESE 22 30 12 16 - - 3.0
03/07:40am 9.0 5.2 9.0 100 0.0 ESE 19 24 10 13 - - 2.8
03/07:30am 9.0 5.2 9.0 100 0.0 ESE 19 24 10 13 - - 2.8
03/07:20am 9.0 5.6 9.0 100 0.0 ESE 17 22 9 12 - - 2.6
03/07:10am 9.0 6.3 9.0 100 0.0 ESE 13 17 7 9 - - 2.4
03/07:00am 9.0 6.7 9.0 100 0.0 E 11 15 6 8 - - 2.4
03/06:50am 9.0 7.1 9.0 100 0.0 E 9 13 5 7 - - 2.2
03/06:40am 9.0 6.7 9.0 100 0.0 ESE 11 13 6 7 - - 2.2
03/06:30am 9.0 6.7 9.0 100 0.0 E 11 17 6 9 - - 2.0
03/06:20am 9.0 5.6 9.0 100 0.0 ESE 17 20 9 11 - - 2.0
03/06:10am 8.9 5.4 8.9 100 0.0 ESE 17 20 9 11 - - 1.8
03/06:00am 8.9 5.8 8.9 100 0.0 ESE 15 19 8 10 - - 1.8
03/05:50am 8.9 5.4 8.9 100 0.0 ESE 17 20 9 11 - - 1.8
03/05:40am 8.9 5.4 8.9 100 0.0 ESE 17 20 9 11 - - 1.8
03/05:30am 8.9 5.4 8.9 100 0.0 ESE 17 20 9 11 - - 1.8
03/05:20am 8.9 5.4 8.9 100 0.0 ESE 17 19 9 10 - - 1.8
03/05:10am 8.8 5.7 8.8 100 0.0 ESE 15 20 8 11 - - 1.8
03/05:00am 8.8 6.1 8.8 100 0.0 SE 13 17 7 9 - - 1.8
03/04:50am 8.8 5.7 8.8 100 0.0 SE 15 20 8 11 - - 1.8
03/04:40am 8.8 6.0 8.7 99 0.1 ESE 13 17 7 9 - - 1.8
03/04:20am 8.7 6.3 8.7 100 0.0 ESE 11 15 6 8 - - 1.8
03/04:10am 8.7 5.9 8.7 100 0.0 ESE 13 19 7 10 - - 1.8
03/04:00am 8.7 5.6 8.7 100 0.0 ESE 15 20 8 11 - - 1.8
03/03:50am 8.6 6.2 8.6 100 0.0 ESE 11 13 6 7 - - 1.8
03/03:30am 8.5 6.1 8.5 100 0.0 ESE 11 15 6 8 - - 1.8
03/03:20am 8.5 6.1 8.5 100 0.0 ESE 11 15 6 8 - - 1.8
03/03:10am 8.6 5.8 8.6 100 0.0 ESE 13 17 7 9 - - 1.6
03/03:00am 8.5 6.1 8.5 100 0.0 ESE 11 19 6 10 - - 1.6
03/02:50am 8.5 6.1 8.5 100 0.0 ESE 11 13 6 7 - - 1.6
03/02:40am 8.5 6.1 8.5 100 0.0 ESE 11 15 6 8 - - 1.6
03/02:30am 8.5 6.1 8.5 100 0.0 ESE 11 15 6 8 - - 1.6
03/02:20am 8.5 6.1 8.5 100 0.0 ESE 11 13 6 7 - - 1.6
03/02:10am 8.5 5.7 8.5 100 0.0 ESE 13 17 7 9 - - 1.6
03/02:00am 8.5 5.7 8.5 100 0.0 ESE 13 17 7 9 - - 1.6
03/01:50am 8.5 5.7 8.5 100 0.0 ESE 13 15 7 8 - - 1.6
03/01:40am 8.5 5.7 8.5 100 0.0 ESE 13 17 7 9 - - 1.6
03/01:30am 8.4 5.9 8.4 100 0.0 E 11 13 6 7 - - 1.6
03/01:20am 8.3 5.4 8.3 100 0.0 E 13 15 7 8 - - 1.6
03/01:10am 8.3 5.4 8.3 100 0.0 E 13 15 7 8 - - 1.6
03/01:00am 8.3 5.4 8.3 100 0.0 ESE 13 17 7 9 - - 1.6
03/12:50am 8.3 5.1 8.3 100 0.0 ESE 15 17 8 9 - - 1.6
03/12:40am 8.3 5.1 8.3 100 0.0 ESE 15 19 8 10 - - 1.6
03/12:30am 8.3 5.4 8.3 100 0.0 ESE 13 17 7 9 - - 1.6
03/12:20am 8.3 5.1 8.3 100 0.0 ESE 15 19 8 10 - - 1.6
03/12:10am 8.3 5.4 8.3 100 0.0 ESE 13 19 7 10 - - 1.6
03/12:00am 8.3 5.4 8.3 100 0.0 ESE 13 19 7 10 - - 1.6
 
Date/Time
EST
Temp
°C
App
Temp
°C
Dew
Point
°C
Rel
Hum
%
Delta-T
°C
Wind Press
QNH
hPa
Press
MSL
hPa
Rain since
9am
mm
Dir  Spd
km/h
Gust
km/h
Spd
kts
Gust
kts
02/11:50pm 8.3 5.1 8.3 100 0.0 ESE 15 17 8 9 - - 1.6
02/11:40pm 8.3 6.2 8.3 100 0.0 ESE 9 13 5 7 - - 1.6
02/11:30pm 8.4 5.9 8.4 100 0.0 ESE 11 15 6 8 - - 1.6
02/11:20pm 8.4 6.3 8.4 100 0.0 E 9 13 5 7 - - 1.6
02/11:10pm 8.4 6.3 8.4 100 0.0 E 9 15 5 8 - - 1.6
02/11:00pm 8.4 6.3 8.4 100 0.0 E 9 13 5 7 - - 1.6
02/10:50pm 8.4 6.3 8.4 100 0.0 E 9 15 5 8 - - 1.6
02/10:40pm 8.4 6.3 8.4 100 0.0 E 9 17 5 9 - - 1.6
02/10:30pm 8.4 5.9 8.4 100 0.0 E 11 17 6 9 - - 1.6
02/10:20pm 8.4 5.6 8.4 100 0.0 ESE 13 19 7 10 - - 1.6
02/10:10pm 8.4 5.6 8.4 100 0.0 E 13 17 7 9 - - 1.6
02/10:00pm 8.4 5.6 8.4 100 0.0 E 13 15 7 8 - - 1.6
02/09:50pm 8.4 5.6 8.4 100 0.0 ESE 13 17 7 9 - - 1.6
02/09:40pm 8.3 5.1 8.3 100 0.0 ESE 15 20 8 11 - - 1.6
02/09:30pm 8.3 5.1 8.3 100 0.0 ESE 15 20 8 11 - - 1.6
02/09:20pm 8.2 4.9 8.2 100 0.0 ESE 15 20 8 11 - - 1.6
02/09:10pm 8.2 5.7 8.2 100 0.0 E 11 15 6 8 - - 1.6
02/09:00pm 8.2 5.3 8.2 100 0.0 ESE 13 17 7 9 - - 1.6
02/08:50pm 8.2 5.3 8.2 100 0.0 ESE 13 17 7 9 - - 1.6
02/08:40pm 8.2 5.3 8.2 100 0.0 ESE 13 15 7 8 - - 1.6
02/08:30pm 8.2 5.7 8.2 100 0.0 ESE 11 13 6 7 - - 1.6
02/08:20pm 8.2 5.7 8.2 100 0.0 ESE 11 13 6 7 - - 1.6
02/08:10pm 8.2 6.1 8.2 100 0.0 E 9 13 5 7 - - 1.6
02/08:00pm 8.2 5.7 8.2 100 0.0 ESE 11 13 6 7 - - 1.6
02/07:50pm 8.1 4.8 8.1 100 0.0 ESE 15 19 8 10 - - 1.6
02/07:40pm 8.1 4.8 8.1 100 0.0 ESE 15 17 8 9 - - 1.6
02/07:30pm 8.1 4.4 8.1 100 0.0 ESE 17 22 9 12 - - 1.6
02/07:20pm 8.1 4.4 8.1 100 0.0 ESE 17 19 9 10 - - 1.6
02/07:10pm 8.2 5.3 8.2 100 0.0 ESE 13 19 7 10 - - 1.4
02/07:00pm 8.2 5.3 8.2 100 0.0 SE 13 19 7 10 - - 1.4
02/06:50pm 8.3 5.1 8.3 100 0.0 SE 15 19 8 10 - - 1.4
02/06:40pm 8.3 5.1 8.3 100 0.0 SE 15 22 8 12 - - 1.2
02/06:30pm 8.3 5.4 8.3 100 0.0 SE 13 15 7 8 - - 1.2
02/06:20pm 8.4 5.2 8.4 100 0.0 SE 15 19 8 10 - - 1.2
02/06:10pm 8.4 5.2 8.4 100 0.0 ESE 15 20 8 11 - - 1.2
02/06:00pm 8.5 5.7 8.5 100 0.0 SE 13 15 7 8 - - 1.0
02/05:50pm 8.5 5.7 8.5 100 0.0 SE 13 15 7 8 - - 1.0
02/05:40pm 8.5 5.7 8.5 100 0.0 SE 13 17 7 9 - - 0.8
02/05:30pm 8.5 5.7 8.5 100 0.0 SE 13 15 7 8 - - 0.8
02/05:20pm 8.6 5.8 8.5 99 0.1 ESE 13 17 7 9 - - 0.8
02/05:10pm 8.6 5.4 8.6 100 0.0 ESE 15 20 8 11 - - 0.8
02/05:00pm 8.6 6.2 8.6 100 0.0 SE 11 15 6 8 - - 0.8
02/04:50pm 8.6 6.6 8.6 100 0.0 SE 9 13 5 7 - - 0.8
02/04:40pm 8.6 6.2 8.6 100 0.0 ESE 11 17 6 9 - - 0.8
02/04:30pm 8.7 6.3 8.7 100 0.0 ESE 11 15 6 8 - - 0.8
02/04:20pm 8.7 6.3 8.7 100 0.0 ESE 11 13 6 7 - - 0.6
02/04:10pm 8.7 6.7 8.7 100 0.0 ESE 9 15 5 8 - - 0.6
02/04:00pm 8.7 6.7 8.7 100 0.0 ESE 9 13 5 7 - - 0.6
02/03:50pm 8.7 7.1 8.7 100 0.0 SE 7 11 4 6 - - 0.6
02/03:40pm 8.8 7.2 8.8 100 0.0 ESE 7 9 4 5 - - 0.6
02/03:30pm 8.9 7.5 8.9 100 0.0 E 6 11 3 6 - - 0.4
02/03:20pm 8.9 7.3 8.9 100 0.0 E 7 11 4 6 - - 0.4
02/03:10pm 9.0 7.5 9.0 100 0.0 E 7 11 4 6 - - 0.4
02/03:00pm 9.0 7.5 9.0 100 0.0 ESE 7 9 4 5 - - 0.4
02/02:50pm 9.0 7.1 9.0 100 0.0 E 9 11 5 6 - - 0.4
02/02:40pm 9.0 7.1 9.0 100 0.0 E 9 13 5 7 - - 0.4
02/02:30pm 9.2 7.0 9.2 100 0.0 E 11 11 6 6 - - 0.4
02/02:20pm 9.1 7.2 9.1 100 0.0 ESE 9 13 5 7 - - 0.2
02/02:10pm 9.0 7.1 9.0 100 0.0 - 9 11 5 6 - - 0.2
02/02:00pm 8.8 6.8 8.8 100 0.0 E 9 13 5 7 - - 0.2
02/01:50pm 8.8 6.8 8.8 100 0.0 ESE 9 17 5 9 - - 0.2
02/01:40pm 8.8 6.8 8.8 100 0.0 ESE 9 15 5 8 - - 0.2
02/01:30pm 8.8 6.8 8.8 100 0.0 ESE 9 13 5 7 - - 0.2
02/01:20pm 9.0 7.1 9.0 100 0.0 SE 9 15 5 8 - - 0.2
02/01:10pm 9.2 7.3 9.2 100 0.0 SE 9 11 5 6 - - 0.2
02/01:00pm 9.1 7.6 9.1 100 0.0 ESE 7 13 4 7 - - 0.2
02/12:50pm 8.7 7.1 8.7 100 0.0 ESE 7 11 4 6 - - 0.2
02/12:40pm 8.5 6.8 8.4 99 0.1 ESE 7 11 4 6 - - 0.2
02/12:30pm 8.5 6.8 8.5 100 0.0 SE 7 15 4 8 - - 0.2
02/12:20pm 8.5 6.5 8.5 100 0.0 ESE 9 13 5 7 - - 0.2
02/12:10pm 8.5 6.1 8.5 100 0.0 ESE 11 13 6 7 - - 0.2
02/12:00pm 8.5 6.0 8.4 99 0.1 ESE 11 15 6 8 - - 0.2
02/11:50am 8.5 6.5 8.5 100 0.0 ESE 9 11 5 6 - - 0.2
02/11:40am 8.4 6.3 8.4 100 0.0 ESE 9 15 5 8 - - 0.2
02/11:30am 8.2 5.3 8.2 100 0.0 ESE 13 17 7 9 - - 0.2
02/11:20am 8.0 5.1 8.0 100 0.0 SE 13 19 7 10 - - 0.2
02/11:10am 8.0 5.8 8.0 100 0.0 SE 9 17 5 9 - - 0.0
02/11:00am 7.9 6.1 7.8 99 0.1 SE 7 9 4 5 - - 0.0
02/10:50am 8.0 6.2 7.8 99 0.1 SE 7 9 4 5 - - 0.0
02/10:40am 8.0 6.2 7.8 99 0.1 SE 7 9 4 5 - - 0.0
02/10:30am 7.8 5.5 7.5 98 0.1 SE 9 11 5 6 - - 0.0
02/10:20am 7.8 5.5 7.4 97 0.2 SE 9 13 5 7 - - 0.0
02/10:10am 7.8 5.9 7.6 99 0.1 SSE 7 11 4 6 - - 0.0
02/10:00am 7.9 6.0 7.7 99 0.1 SSE 7 9 4 5 - - 0.0
02/09:50am 7.7 5.8 7.5 99 0.1 SSE 7 11 4 6 - - 0.0
02/09:40am 7.6 5.3 7.5 99 0.0 SSE 9 11 5 6 - - 0.0
02/09:30am 7.7 6.0 7.6 99 0.0 SSE 6 7 3 4 - - 0.0
02/09:20am 7.7 5.8 7.6 99 0.0 SSE 7 9 4 5 - - 0.0
02/09:10am 7.5 5.6 7.5 100 0.0 SSE 7 7 4 4 - - 0.0
02/09:00am 7.3 5.3 7.3 100 0.0 SSE 7 7 4 4 - - 1.4
02/08:50am 7.1 5.1 7.1 100 0.0 SSE 7 9 4 5 - - 1.4
02/08:40am 7.0 5.0 7.0 100 0.0 SSE 7 9 4 5 - - 1.4
02/08:20am 6.8 4.4 6.8 100 0.0 SSE 9 13 5 7 - - 1.4
02/08:10am 6.8 4.0 6.8 100 0.0 SE 11 13 6 7 - - 1.4
02/08:00am 6.7 4.2 6.7 100 0.0 SE 9 9 5 5 - - 1.4
02/07:50am 6.6 3.7 6.6 100 0.0 SE 11 15 6 8 - - 1.4
02/07:40am 6.6 3.7 6.6 100 0.0 SE 11 15 6 8 - - 1.4
02/07:30am 6.5 3.6 6.5 100 0.0 SE 11 15 6 8 - - 1.4
02/07:20am 6.4 3.9 6.4 100 0.0 SE 9 13 5 7 - - 1.4
02/07:10am 6.4 3.9 6.4 100 0.0 ESE 9 13 5 7 - - 1.4
02/07:00am 6.4 4.2 6.4 100 0.0 SE 7 9 4 5 - - 1.4
02/06:50am 6.4 4.2 6.3 99 0.0 SE 7 9 4 5 - - 1.4
02/06:40am 6.4 4.2 6.4 100 0.0 SE 7 9 4 5 - - 1.4
02/06:30am 6.4 4.2 6.4 100 0.0 SE 7 9 4 5 - - 1.4
02/06:20am 6.4 3.9 6.4 100 0.0 SE 9 13 5 7 - - 1.4
02/06:10am 6.4 3.9 6.4 100 0.0 SE 9 15 5 8 - - 1.4
02/06:00am 6.4 3.9 6.4 100 0.0 SE 9 13 5 7 - - 1.4
02/05:50am 6.3 4.1 6.3 100 0.0 SE 7 13 4 7 - - 1.4
02/05:40am 6.3 3.7 6.3 100 0.0 SE 9 11 5 6 - - 1.4
02/05:30am 6.3 3.4 6.3 100 0.0 SE 11 13 6 7 - - 1.4
02/05:20am 6.3 3.4 6.3 100 0.0 SE 11 13 6 7 - - 1.4
02/05:10am 6.3 3.7 6.3 100 0.0 SE 9 11 5 6 - - 1.4
02/05:00am 6.3 3.4 6.3 100 0.0 SE 11 11 6 6 - - 1.4
02/04:50am 6.3 3.4 6.3 100 0.0 SE 11 15 6 8 - - 1.4
02/04:40am 6.3 4.1 6.3 100 0.0 SE 7 11 4 6 - - 1.4
02/04:30am 6.3 4.1 6.3 100 0.0 ESE 7 11 4 6 - - 1.4
02/04:20am 6.3 3.0 6.3 100 0.0 SE 13 15 7 8 - - 1.4
02/04:10am 6.3 3.4 6.3 100 0.0 SE 11 15 6 8 - - 1.4
02/04:00am 6.3 3.4 6.3 100 0.0 SE 11 15 6 8 - - 1.4
02/03:50am 6.3 3.0 6.3 100 0.0 ESE 13 17 7 9 - - 1.4
02/03:40am 6.3 3.4 6.3 100 0.0 ESE 11 13 6 7 - - 1.4
02/03:30am 6.3 3.4 6.3 100 0.0 ESE 11 17 6 9 - - 1.4
02/03:20am 6.2 3.2 6.2 100 0.0 ESE 11 13 6 7 - - 1.4
02/03:10am 6.2 3.2 6.2 100 0.0 SE 11 13 6 7 - - 1.4
02/03:00am 6.2 3.2 6.2 100 0.0 SE 11 15 6 8 - - 1.4
02/02:50am 6.2 2.9 6.2 100 0.0 SE 13 17 7 9 - - 1.4
02/02:40am 6.2 2.5 6.2 100 0.0 SE 15 19 8 10 - - 1.4
02/02:30am 6.2 2.9 6.2 100 0.0 SE 13 15 7 8 - - 1.4
02/02:20am 6.2 3.2 6.2 100 0.0 SE 11 17 6 9 - - 1.4
02/02:10am 6.2 3.2 6.2 100 0.0 SE 11 13 6 7 - - 1.4
02/02:00am 6.2 3.6 6.2 100 0.0 SE 9 13 5 7 - - 1.4
02/01:50am 6.2 3.2 6.2 100 0.0 ESE 11 15 6 8 - - 1.2
02/01:40am 6.3 3.3 6.2 99 0.0 ESE 11 13 6 7 - - 1.2
02/01:30am 6.3 3.7 6.3 100 0.0 ESE 9 13 5 7 - - 1.2
02/01:20am 6.3 3.7 6.2 99 0.0 ESE 9 13 5 7 - - 1.2
02/01:10am 6.2 3.6 6.2 100 0.0 ESE 9 13 5 7 - - 1.2
02/01:00am 6.2 4.0 6.2 100 0.0 ESE 7 9 4 5 - - 1.2
02/12:50am 6.1 3.9 6.1 100 0.0 SE 7 11 4 6 - - 1.2
02/12:40am 6.1 3.1 6.1 100 0.0 ESE 11 13 6 7 - - 1.2
02/12:30am 6.0 3.0 6.0 100 0.0 ESE 11 15 6 8 - - 1.2
02/12:20am 6.0 3.0 6.0 100 0.0 ESE 11 17 6 9 - - 1.2
02/12:10am 6.0 3.0 6.0 100 0.0 ESE 11 15 6 8 - - 1.2
02/12:00am 6.0 2.6 6.0 100 0.0 ESE 13 17 7 9 - - 1.2
 
Date/Time
EST
Temp
°C
App
Temp
°C
Dew
Point
°C
Rel
Hum
%
Delta-T
°C
Wind Press
QNH
hPa
Press
MSL
hPa
Rain since
9am
mm
Dir  Spd
km/h
Gust
km/h
Spd
kts
Gust
kts
01/11:50pm 6.1 2.7 6.0 99 0.0 SE 13 17 7 9 - - 1.2
01/11:30pm 6.0 2.6 6.0 100 0.0 ESE 13 17 7 9 - - 1.2
01/11:20pm 6.0 3.0 6.0 100 0.0 ESE 11 15 6 8 - - 1.2
01/11:10pm 6.0 3.0 6.0 100 0.0 ESE 11 17 6 9 - - 1.2
01/11:00pm 6.0 2.6 6.0 100 0.0 ESE 13 17 7 9 - - 1.2
01/10:50pm 6.0 3.0 6.0 100 0.0 ESE 11 15 6 8 - - 1.2
01/10:40pm 6.0 3.4 6.0 100 0.0 ESE 9 11 5 6 - - 1.2
01/10:30pm 6.0 3.0 6.0 100 0.0 ESE 11 13 6 7 - - 1.2
01/10:20pm 6.0 3.7 5.9 99 0.0 ESE 7 9 4 5 - - 1.2
01/10:10pm 5.9 3.3 5.9 100 0.0 ESE 9 11 5 6 - - 1.2
01/10:00pm 5.9 3.6 5.9 100 0.0 E 7 13 4 7 - - 1.2
01/09:50pm 5.9 3.6 5.9 100 0.0 E 7 9 4 5 - - 1.2
01/09:40pm 5.9 3.2 5.8 99 0.0 ESE 9 11 5 6 - - 1.2
01/09:30pm 5.8 3.1 5.8 100 0.0 ESE 9 11 5 6 - - 1.2
01/09:20pm 5.8 3.5 5.8 100 0.0 - 7 11 4 6 - - 1.2
01/09:10pm 5.8 3.1 5.8 100 0.0 E 9 11 5 6 - - 1.2
01/09:00pm 5.8 2.8 5.8 100 0.0 ESE 11 13 6 7 - - 1.2
01/08:50pm 5.8 2.8 5.8 100 0.0 ESE 11 13 6 7 - - 1.2
01/08:40pm 5.7 3.4 5.7 100 0.0 ESE 7 9 4 5 - - 1.2
01/08:30pm 5.7 3.6 5.7 100 0.0 E 6 9 3 5 - - 1.2
01/08:20pm 5.7 4.0 5.7 100 0.0 E 4 6 2 3 - - 1.2
01/08:10pm 5.6 3.5 5.6 100 0.0 ESE 6 9 3 5 - - 1.2
01/08:00pm 5.6 3.4 5.5 99 0.0 ESE 6 9 3 5 - - 1.2
01/07:50pm 5.6 3.5 5.6 100 0.0 E 6 7 3 4 - - 1.2
01/07:40pm 5.6 3.5 5.6 100 0.0 E 6 7 3 4 - - 1.2
01/07:30pm 5.6 3.5 5.6 100 0.0 ENE 6 7 3 4 - - 1.2
01/07:20pm 5.6 3.3 5.6 100 0.0 ESE 7 7 4 4 - - 1.2
01/07:10pm 5.6 3.3 5.6 100 0.0 SE 7 9 4 5 - - 1.2
01/07:00pm 5.5 3.2 5.5 100 0.0 ESE 7 9 4 5 - - 1.2
01/06:50pm 5.5 3.2 5.5 100 0.0 ESE 7 9 4 5 - - 1.2
01/06:40pm 5.5 3.2 5.5 100 0.0 ESE 7 11 4 6 - - 1.2
01/06:30pm 5.5 3.2 5.5 100 0.0 ESE 7 9 4 5 - - 1.2
01/06:20pm 5.4 3.2 5.4 100 0.0 ESE 6 9 3 5 - - 1.2
01/06:10pm 5.4 3.0 5.4 100 0.0 ESE 7 9 4 5 - - 1.2
01/06:00pm 5.3 2.9 5.3 100 0.0 SE 7 9 4 5 - - 1.2
01/05:50pm 5.3 3.1 5.3 100 0.0 E 6 7 3 4 - - 1.2
01/05:40pm 5.3 2.9 5.3 100 0.0 ESE 7 9 4 5 - - 1.2
01/05:30pm 5.2 3.0 5.2 100 0.0 ESE 6 9 3 5 - - 1.2
01/05:20pm 5.2 2.8 5.2 100 0.0 ESE 7 9 4 5 - - 1.2
01/05:10pm 5.1 2.3 5.1 100 0.0 SE 9 11 5 6 - - 1.2
01/05:00pm 5.2 3.0 5.1 99 0.0 ESE 6 7 3 4 - - 1.0
01/04:50pm 5.2 3.0 5.2 100 0.0 E 6 9 3 5 - - 1.0
01/04:40pm 5.2 3.0 5.2 100 0.0 E 6 9 3 5 - - 1.0
01/04:30pm 5.1 2.7 5.1 100 0.0 ESE 7 11 4 6 - - 1.0
01/04:20pm 5.2 3.0 5.2 100 0.0 E 6 9 3 5 - - 1.0
01/04:10pm 5.2 2.8 5.1 99 0.0 E 7 9 4 5 - - 1.0
01/04:00pm 5.2 3.0 5.2 100 0.0 E 6 9 3 5 - - 1.0
01/03:50pm 5.2 2.4 5.2 100 0.0 E 9 13 5 7 - - 1.0
01/03:40pm 5.2 3.0 5.2 100 0.0 ESE 6 9 3 5 - - 0.8
01/03:30pm 5.2 3.0 5.2 100 0.0 E 6 9 3 5 - - 0.8
01/03:20pm 5.2 3.0 5.2 100 0.0 E 6 7 3 4 - - 0.8
01/03:10pm 5.2 2.8 5.2 100 0.0 E 7 9 4 5 - - 0.8
01/03:00pm 5.3 3.1 5.2 99 0.0 E 6 13 3 7 - - 0.6
01/02:50pm 5.3 2.9 5.3 100 0.0 SE 7 9 4 5 - - 0.6
01/02:40pm 5.3 3.1 5.3 100 0.0 E 6 7 3 4 - - 0.6
01/02:30pm 5.4 3.2 5.4 100 0.0 E 6 9 3 5 - - 0.6
01/02:20pm 5.4 3.0 5.4 100 0.0 ESE 7 9 4 5 - - 0.6
01/02:10pm 5.4 3.2 5.4 100 0.0 E 6 9 3 5 - - 0.6
01/02:00pm 5.4 3.0 5.4 100 0.0 E 7 9 4 5 - - 0.6
01/01:50pm 5.4 3.2 5.4 100 0.0 E 6 9 3 5 - - 0.4
01/01:40pm 5.3 2.5 5.3 100 0.0 ESE 9 9 5 5 - - 0.4
01/01:30pm 5.2 2.4 5.2 100 0.0 ESE 9 15 5 8 - - 0.4
01/01:20pm 5.2 2.4 5.2 100 0.0 ESE 9 11 5 6 - - 0.4
01/01:10pm 5.3 2.1 5.3 100 0.0 ESE 11 13 6 7 - - 0.4
01/01:00pm 5.3 2.5 5.3 100 0.0 E 9 11 5 6 - - 0.4
01/12:40pm 5.3 2.5 5.3 100 0.0 E 9 11 5 6 - - 0.2
01/12:30pm 5.2 2.0 5.2 100 0.0 E 11 15 6 8 - - 0.2
01/12:20pm 5.3 1.8 5.3 100 0.0 ESE 13 17 7 9 - - 0.2
01/12:10pm 5.4 1.9 5.3 99 0.0 ESE 13 20 7 11 - - 0.2
01/12:00pm 5.4 2.7 5.4 100 0.0 E 9 11 5 6 - - 0.2
01/11:50am 5.7 3.4 5.7 100 0.0 E 7 9 4 5 - - 0.2
01/11:40am 5.8 3.5 5.8 100 0.0 E 7 9 4 5 - - 0.2
01/11:30am 5.9 2.9 5.9 100 0.0 E 11 13 6 7 - - 0.2
01/11:20am 5.9 3.6 5.9 100 0.0 E 7 13 4 7 - - 0.0
01/11:10am 5.8 3.7 5.8 100 0.0 E 6 9 3 5 - - 0.0
01/11:00am 5.9 3.8 5.9 100 0.0 E 6 9 3 5 - - 0.0
01/10:50am 5.9 3.6 5.9 100 0.0 ESE 7 9 4 5 - - 0.0
01/10:40am 5.9 3.8 5.9 100 0.0 E 6 13 3 7 - - 0.0
01/10:30am 5.9 3.8 5.9 100 0.0 E 6 7 3 4 - - 0.0
01/10:20am 5.8 3.5 5.8 100 0.0 E 7 13 4 7 - - 0.0
01/10:10am 5.8 3.5 5.8 100 0.0 ESE 7 9 4 5 - - 0.0
01/10:00am 5.7 3.4 5.7 100 0.0 E 7 13 4 7 - - 0.0
01/09:50am 5.5 2.8 5.5 100 0.0 E 9 13 5 7 - - 0.0
01/09:40am 5.5 2.8 5.4 99 0.0 ESE 9 15 5 8 - - 0.0
01/09:30am 5.4 2.7 5.4 100 0.0 E 9 11 5 6 - - 0.0
01/09:20am 5.4 3.0 5.4 100 0.0 E 7 9 4 5 - - 0.0
01/09:10am 5.4 3.0 5.4 100 0.0 E 7 11 4 6 - - 0.0
01/09:00am 5.4 2.6 5.3 99 0.0 ESE 9 13 5 7 - - 0.2
01/08:40am 5.2 2.4 5.2 100 0.0 ESE 9 13 5 7 - - 0.2
01/08:30am 5.2 2.0 5.2 100 0.0 ESE 11 13 6 7 - - 0.2
01/08:20am 5.2 2.0 5.2 100 0.0 ESE 11 17 6 9 - - 0.2
01/08:10am 5.2 2.0 5.2 100 0.0 ESE 11 15 6 8 - - 0.2
01/08:00am 5.3 2.5 5.3 100 0.0 ESE 9 9 5 5 - - 0.2
01/07:50am 5.3 2.9 5.3 100 0.0 ESE 7 9 4 5 - - 0.2
01/07:40am 5.3 2.9 5.2 99 0.0 ESE 7 9 4 5 - - 0.2
01/07:30am 5.4 3.0 5.2 99 0.1 ESE 7 11 4 6 - - 0.2
01/07:20am 5.4 3.0 5.2 99 0.1 ESE 7 11 4 6 - - 0.2
01/07:10am 5.4 3.2 5.2 99 0.1 ESE 6 7 3 4 - - 0.2
01/07:00am 5.4 3.2 5.2 99 0.1 E 6 7 3 4 - - 0.2
01/06:50am 5.4 3.2 5.2 99 0.1 E 6 7 3 4 - - 0.2
01/06:40am 5.5 3.1 5.2 98 0.1 ESE 7 9 4 5 - - 0.2
01/06:00am 5.6 3.4 5.2 97 0.2 ESE 6 9 3 5 - - 0.0
01/05:50am 5.6 3.4 5.2 97 0.2 E 6 7 3 4 - - 0.0
01/05:20am 5.6 3.1 5.0 96 0.3 E 7 7 4 4 - - 0.0
01/05:00am 5.6 3.1 4.9 95 0.3 E 7 13 4 7 - - 0.0
01/04:50am 5.6 3.3 4.7 94 0.4 ESE 6 7 3 4 - - 0.0
01/04:40am 5.7 3.4 4.6 93 0.5 ESE 6 7 3 4 - - 0.0
01/04:30am 5.8 3.4 4.5 91 0.6 ESE 6 6 3 3 - - 0.0
01/04:20am 6.0 3.6 4.2 88 0.8 ENE 6 7 3 4 - - 0.0
01/04:10am 6.2 3.7 4.0 86 1.0 E 6 9 3 5 - - 0.0
01/04:00am 6.3 3.6 3.5 82 1.3 E 7 9 4 5 - - 0.0
01/03:50am 6.3 3.6 3.5 82 1.3 ESE 7 11 4 6 - - 0.0
01/03:40am 6.4 3.7 3.6 82 1.3 ESE 7 9 4 5 - - 0.0
01/03:30am 6.5 3.9 3.4 80 1.4 E 6 11 3 6 - - 0.0
01/03:20am 6.5 3.8 3.5 81 1.3 E 7 9 4 5 - - 0.0
01/03:10am 6.4 3.7 3.5 82 1.3 E 7 9 4 5 - - 0.0
01/03:00am 6.3 3.5 3.3 81 1.3 ESE 7 11 4 6 - - 0.0
01/02:50am 6.3 3.5 2.9 79 1.5 ESE 7 9 4 5 - - 0.0
01/02:40am 6.4 3.7 2.9 78 1.5 ESE 6 7 3 4 - - 0.0
01/02:30am 6.4 3.7 2.9 78 1.5 - 6 7 3 4 - - 0.0
01/02:20am 6.4 3.5 2.7 77 1.6 E 7 9 4 5 - - 0.0
01/02:10am 6.4 3.5 2.7 77 1.6 E 7 11 4 6 - - 0.0
01/02:00am 6.4 3.5 2.7 77 1.6 ESE 7 7 4 4 - - 0.0
01/01:50am 6.4 3.5 2.5 76 1.7 E 7 11 4 6 - - 0.0
01/01:40am 6.3 3.5 2.3 75 1.7 - 6 7 3 4 - - 0.0
01/01:30am 6.3 3.5 2.1 74 1.8 E 6 7 3 4 - - 0.0
01/01:20am 6.3 3.5 1.9 73 1.9 E 6 9 3 5 - - 0.0
01/01:10am 6.3 3.4 1.7 72 2.0 E 6 7 3 4 - - 0.0
01/01:00am 6.3 3.2 1.5 71 2.1 E 7 9 4 5 - - 0.0
01/12:50am 6.3 3.2 1.3 70 2.1 E 7 9 4 5 - - 0.0
01/12:40am 6.5 3.4 1.1 68 2.3 ESE 7 11 4 6 - - 0.0
01/12:30am 6.5 3.3 0.9 67 2.4 - 7 11 4 6 - - 0.0
01/12:20am 6.4 3.4 0.9 68 2.3 E 6 9 3 5 - - 0.0
01/12:10am 6.4 3.2 1.0 68 2.3 E 7 7 4 4 - - 0.0
01/12:00am 6.5 2.9 0.8 67 2.4 E 9 11 5 6 - - 0.0
 
Date/Time
EST
Temp
°C
App
Temp
°C
Dew
Point
°C
Rel
Hum
%
Delta-T
°C
Wind Press
QNH
hPa
Press
MSL
hPa
Rain since
9am
mm
Dir  Spd
km/h
Gust
km/h
Spd
kts
Gust
kts
30/11:50pm 6.5 2.9 0.8 67 2.4 E 9 9 5 5 - - 0.0
30/11:40pm 6.4 3.2 0.7 67 2.4 E 7 11 4 6 - - 0.0
30/11:30pm 6.4 2.5 0.9 68 2.3 ESE 11 15 6 8 - - 0.0
30/11:20pm 6.4 2.9 1.0 68 2.3 E 9 11 5 6 - - 0.0
30/11:10pm 6.4 2.8 0.8 67 2.4 E 9 13 5 7 - - 0.0
30/11:00pm 6.4 2.9 1.3 70 2.2 ESE 9 11 5 6 - - 0.0
30/10:40pm 6.3 3.2 3.4 82 1.3 ESE 9 15 5 8 - - 0.0

Other formats

Comma delimited format used in spreadsheet applications
http://www.bom.gov.au/fwo/IDN60801/IDN60801.99999.axf

JavaScript Object Notation format (JSON) in row-major order
http://www.bom.gov.au/fwo/IDN60801/IDN60801.99999.json

Data quality

Most of these data are generated automatically and are frequently updated. Quality checks on data are not normally performed. It is possible for incorrect values to appear. Refer to information at About Latest Weather Observations and please check the disclaimer before using these data.